sensor_id;sensor_type;location;lat;lon;timestamp;temperature;humidity
22379;DHT22;11357;49.990;7.370;2023-12-20T00:00:58;8.70;95.70
22379;DHT22;11357;49.990;7.370;2023-12-20T00:03:23;8.70;95.80
22379;DHT22;11357;49.990;7.370;2023-12-20T00:05:50;8.60;95.80
22379;DHT22;11357;49.990;7.370;2023-12-20T00:08:16;8.70;95.80
22379;DHT22;11357;49.990;7.370;2023-12-20T00:10:42;8.70;95.80
22379;DHT22;11357;49.990;7.370;2023-12-20T00:13:08;8.70;95.70
22379;DHT22;11357;49.990;7.370;2023-12-20T00:15:34;8.70;95.70
22379;DHT22;11357;49.990;7.370;2023-12-20T00:18:00;8.60;95.70
22379;DHT22;11357;49.990;7.370;2023-12-20T00:20:27;8.70;95.80
22379;DHT22;11357;49.990;7.370;2023-12-20T00:22:57;8.70;95.80
22379;DHT22;11357;49.990;7.370;2023-12-20T00:25:25;8.70;95.80
22379;DHT22;11357;49.990;7.370;2023-12-20T00:27:51;8.70;95.70
22379;DHT22;11357;49.990;7.370;2023-12-20T00:30:18;8.70;95.70
22379;DHT22;11357;49.990;7.370;2023-12-20T00:32:43;8.80;95.70
22379;DHT22;11357;49.990;7.370;2023-12-20T00:35:15;8.80;95.60
22379;DHT22;11357;49.990;7.370;2023-12-20T00:37:44;8.80;95.70
22379;DHT22;11357;49.990;7.370;2023-12-20T00:40:10;8.80;95.70
22379;DHT22;11357;49.990;7.370;2023-12-20T00:42:36;8.80;95.60
22379;DHT22;11357;49.990;7.370;2023-12-20T00:45:02;8.80;95.60
22379;DHT22;11357;49.990;7.370;2023-12-20T00:47:30;8.70;95.60
22379;DHT22;11357;49.990;7.370;2023-12-20T00:49:56;8.70;95.60
22379;DHT22;11357;49.990;7.370;2023-12-20T00:52:21;8.70;95.70
22379;DHT22;11357;49.990;7.370;2023-12-20T00:54:48;8.70;95.80
22379;DHT22;11357;49.990;7.370;2023-12-20T00:57:14;8.70;95.80
22379;DHT22;11357;49.990;7.370;2023-12-20T00:59:40;8.70;95.80
22379;DHT22;11357;49.990;7.370;2023-12-20T01:02:06;8.70;95.70
22379;DHT22;11357;49.990;7.370;2023-12-20T01:04:32;8.70;95.70
22379;DHT22;11357;49.990;7.370;2023-12-20T01:06:58;8.80;95.70
22379;DHT22;11357;49.990;7.370;2023-12-20T01:09:23;8.80;95.70
22379;DHT22;11357;49.990;7.370;2023-12-20T01:11:55;8.70;95.70
22379;DHT22;11357;49.990;7.370;2023-12-20T01:14:20;8.80;95.70
22379;DHT22;11357;49.990;7.370;2023-12-20T01:16:46;8.80;95.70
22379;DHT22;11357;49.990;7.370;2023-12-20T01:19:13;8.80;95.70
22379;DHT22;11357;49.990;7.370;2023-12-20T01:21:39;8.80;95.70
22379;DHT22;11357;49.990;7.370;2023-12-20T01:24:05;8.80;95.60
22379;DHT22;11357;49.990;7.370;2023-12-20T01:26:31;8.80;95.70
22379;DHT22;11357;49.990;7.370;2023-12-20T01:28:57;8.80;95.70
22379;DHT22;11357;49.990;7.370;2023-12-20T01:31:23;8.80;95.70
22379;DHT22;11357;49.990;7.370;2023-12-20T01:33:48;8.80;95.70
22379;DHT22;11357;49.990;7.370;2023-12-20T01:36:14;8.80;95.70
22379;DHT22;11357;49.990;7.370;2023-12-20T01:38:40;8.80;95.70
22379;DHT22;11357;49.990;7.370;2023-12-20T01:41:05;8.80;95.70
22379;DHT22;11357;49.990;7.370;2023-12-20T01:43:31;8.90;95.70
22379;DHT22;11357;49.990;7.370;2023-12-20T01:46:00;8.90;95.70
22379;DHT22;11357;49.990;7.370;2023-12-20T01:48:27;8.90;95.70
22379;DHT22;11357;49.990;7.370;2023-12-20T01:50:53;8.90;95.60
22379;DHT22;11357;49.990;7.370;2023-12-20T01:53:21;8.90;95.60
22379;DHT22;11357;49.990;7.370;2023-12-20T01:55:50;8.90;95.70
22379;DHT22;11357;49.990;7.370;2023-12-20T01:58:17;8.90;95.70
22379;DHT22;11357;49.990;7.370;2023-12-20T02:00:44;8.90;95.70
22379;DHT22;11357;49.990;7.370;2023-12-20T02:03:10;8.80;95.70
22379;DHT22;11357;49.990;7.370;2023-12-20T02:05:35;8.80;95.70
22379;DHT22;11357;49.990;7.370;2023-12-20T02:08:02;8.80;95.80
22379;DHT22;11357;49.990;7.370;2023-12-20T02:10:28;8.80;95.70
22379;DHT22;11357;49.990;7.370;2023-12-20T02:12:54;8.80;95.80
22379;DHT22;11357;49.990;7.370;2023-12-20T02:15:20;8.80;95.80
22379;DHT22;11357;49.990;7.370;2023-12-20T02:17:47;8.90;95.80
22379;DHT22;11357;49.990;7.370;2023-12-20T02:20:13;8.80;95.80
22379;DHT22;11357;49.990;7.370;2023-12-20T02:22:39;8.90;95.80
22379;DHT22;11357;49.990;7.370;2023-12-20T02:25:05;8.90;95.80
22379;DHT22;11357;49.990;7.370;2023-12-20T02:27:31;8.90;95.80
22379;DHT22;11357;49.990;7.370;2023-12-20T02:29:57;8.90;95.80
22379;DHT22;11357;49.990;7.370;2023-12-20T02:32:24;8.90;95.80
22379;DHT22;11357;49.990;7.370;2023-12-20T02:34:54;8.90;95.80
22379;DHT22;11357;49.990;7.370;2023-12-20T02:37:20;8.90;95.80
22379;DHT22;11357;49.990;7.370;2023-12-20T02:39:46;8.90;95.80
22379;DHT22;11357;49.990;7.370;2023-12-20T02:42:11;8.90;95.70
22379;DHT22;11357;49.990;7.370;2023-12-20T02:44:37;8.90;95.70
22379;DHT22;11357;49.990;7.370;2023-12-20T02:47:03;9.00;96.10
22379;DHT22;11357;49.990;7.370;2023-12-20T02:49:28;8.90;95.80
22379;DHT22;11357;49.990;7.370;2023-12-20T02:51:54;8.90;95.80
22379;DHT22;11357;49.990;7.370;2023-12-20T02:54:20;8.90;95.80
22379;DHT22;11357;49.990;7.370;2023-12-20T02:56:45;8.90;95.80
22379;DHT22;11357;49.990;7.370;2023-12-20T02:59:11;8.90;95.80
22379;DHT22;11357;49.990;7.370;2023-12-20T03:01:46;8.90;95.90
22379;DHT22;11357;49.990;7.370;2023-12-20T06:19:21;7.20;94.80
22379;DHT22;11357;49.990;7.370;2023-12-20T06:21:46;7.20;94.80
22379;DHT22;11357;49.990;7.370;2023-12-20T06:24:12;7.20;94.70
22379;DHT22;11357;49.990;7.370;2023-12-20T06:26:38;7.20;94.60
22379;DHT22;11357;49.990;7.370;2023-12-20T06:29:03;7.20;94.60
22379;DHT22;11357;49.990;7.370;2023-12-20T06:31:29;7.10;94.50
22379;DHT22;11357;49.990;7.370;2023-12-20T06:33:55;7.10;94.50
22379;DHT22;11357;49.990;7.370;2023-12-20T06:36:23;7.10;94.50
22379;DHT22;11357;49.990;7.370;2023-12-20T06:38:50;7.00;94.60
22379;DHT22;11357;49.990;7.370;2023-12-20T06:41:16;7.00;94.60
22379;DHT22;11357;49.990;7.370;2023-12-20T06:43:42;7.00;94.70
22379;DHT22;11357;49.990;7.370;2023-12-20T06:46:07;7.00;94.70
22379;DHT22;11357;49.990;7.370;2023-12-20T06:48:34;7.10;94.80
22379;DHT22;11357;49.990;7.370;2023-12-20T06:51:00;7.10;94.80
22379;DHT22;11357;49.990;7.370;2023-12-20T06:53:27;7.00;94.80
22379;DHT22;11357;49.990;7.370;2023-12-20T06:55:53;7.10;94.90
22379;DHT22;11357;49.990;7.370;2023-12-20T06:58:19;7.10;94.90
22379;DHT22;11357;49.990;7.370;2023-12-20T07:00:44;7.10;94.90
22379;DHT22;11357;49.990;7.370;2023-12-20T07:03:10;7.20;94.90
22379;DHT22;11357;49.990;7.370;2023-12-20T07:05:35;7.20;94.80
22379;DHT22;11357;49.990;7.370;2023-12-20T07:08:01;7.20;94.80
22379;DHT22;11357;49.990;7.370;2023-12-20T07:10:27;7.30;94.80
22379;DHT22;11357;49.990;7.370;2023-12-20T07:12:52;7.20;94.70
22379;DHT22;11357;49.990;7.370;2023-12-20T07:15:21;7.20;94.60
22379;DHT22;11357;49.990;7.370;2023-12-20T07:17:46;7.20;94.70
22379;DHT22;11357;49.990;7.370;2023-12-20T07:20:12;7.20;94.70
22379;DHT22;11357;49.990;7.370;2023-12-20T07:22:38;7.20;94.70
22379;DHT22;11357;49.990;7.370;2023-12-20T07:25:04;7.20;94.60
22379;DHT22;11357;49.990;7.370;2023-12-20T07:27:30;7.10;94.60
22379;DHT22;11357;49.990;7.370;2023-12-20T07:29:56;7.10;94.70
22379;DHT22;11357;49.990;7.370;2023-12-20T07:32:21;7.10;94.70
22379;DHT22;11357;49.990;7.370;2023-12-20T07:34:47;7.10;94.80
22379;DHT22;11357;49.990;7.370;2023-12-20T07:37:13;7.20;94.80
22379;DHT22;11357;49.990;7.370;2023-12-20T07:39:41;7.20;94.80
22379;DHT22;11357;49.990;7.370;2023-12-20T07:42:08;7.30;94.80
22379;DHT22;11357;49.990;7.370;2023-12-20T07:44:34;7.30;94.80
22379;DHT22;11357;49.990;7.370;2023-12-20T07:47:01;7.30;94.80
22379;DHT22;11357;49.990;7.370;2023-12-20T07:49:27;7.30;94.80
22379;DHT22;11357;49.990;7.370;2023-12-20T07:51:52;7.40;94.80
22379;DHT22;11357;49.990;7.370;2023-12-20T07:54:18;7.40;94.90
22379;DHT22;11357;49.990;7.370;2023-12-20T07:56:43;7.40;94.90
22379;DHT22;11357;49.990;7.370;2023-12-20T07:59:09;7.40;94.90
22379;DHT22;11357;49.990;7.370;2023-12-20T08:01:35;7.50;95.00
22379;DHT22;11357;49.990;7.370;2023-12-20T08:04:00;7.50;94.90
22379;DHT22;11357;49.990;7.370;2023-12-20T08:06:26;7.50;94.90
22379;DHT22;11357;49.990;7.370;2023-12-20T08:08:51;7.50;94.90
22379;DHT22;11357;49.990;7.370;2023-12-20T08:11:17;7.50;95.00
22379;DHT22;11357;49.990;7.370;2023-12-20T08:13:43;7.60;95.00
22379;DHT22;11357;49.990;7.370;2023-12-20T08:16:08;7.60;95.00
22379;DHT22;11357;49.990;7.370;2023-12-20T08:18:34;7.60;95.00
22379;DHT22;11357;49.990;7.370;2023-12-20T08:21:00;7.70;95.00
22379;DHT22;11357;49.990;7.370;2023-12-20T08:23:27;7.70;94.90
22379;DHT22;11357;49.990;7.370;2023-12-20T08:25:52;7.80;94.90
22379;DHT22;11357;49.990;7.370;2023-12-20T08:28:18;7.80;94.90
22379;DHT22;11357;49.990;7.370;2023-12-20T08:30:44;7.80;94.90
22379;DHT22;11357;49.990;7.370;2023-12-20T08:33:09;7.80;94.90
22379;DHT22;11357;49.990;7.370;2023-12-20T08:35:41;7.90;94.90
22379;DHT22;11357;49.990;7.370;2023-12-20T08:38:07;7.90;94.80
22379;DHT22;11357;49.990;7.370;2023-12-20T08:40:32;8.00;94.80
22379;DHT22;11357;49.990;7.370;2023-12-20T08:42:58;8.00;94.80
22379;DHT22;11357;49.990;7.370;2023-12-20T08:45:23;8.00;94.80
22379;DHT22;11357;49.990;7.370;2023-12-20T08:47:50;8.00;94.80
22379;DHT22;11357;49.990;7.370;2023-12-20T08:50:15;8.00;94.80
22379;DHT22;11357;49.990;7.370;2023-12-20T08:52:41;8.10;94.80
22379;DHT22;11357;49.990;7.370;2023-12-20T08:55:08;8.10;94.70
22379;DHT22;11357;49.990;7.370;2023-12-20T08:57:35;8.20;94.70
22379;DHT22;11357;49.990;7.370;2023-12-20T09:00:00;8.10;94.70
22379;DHT22;11357;49.990;7.370;2023-12-20T09:02:26;8.20;94.70
22379;DHT22;11357;49.990;7.370;2023-12-20T09:04:52;8.20;94.60
22379;DHT22;11357;49.990;7.370;2023-12-20T09:07:25;8.20;94.60
22379;DHT22;11357;49.990;7.370;2023-12-20T09:09:51;8.30;94.60
22379;DHT22;11357;49.990;7.370;2023-12-20T09:12:20;8.30;94.60
22379;DHT22;11357;49.990;7.370;2023-12-20T09:25:19;8.50;94.50
22379;DHT22;11357;49.990;7.370;2023-12-20T09:27:45;8.60;94.40
22379;DHT22;11357;49.990;7.370;2023-12-20T09:30:11;8.70;94.30
22379;DHT22;11357;49.990;7.370;2023-12-20T09:32:36;8.70;94.20
22379;DHT22;11357;49.990;7.370;2023-12-20T09:41:29;8.70;94.20
22379;DHT22;11357;49.990;7.370;2023-12-20T09:44:02;8.70;94.10
22379;DHT22;11357;49.990;7.370;2023-12-20T09:46:29;8.60;94.10
22379;DHT22;11357;49.990;7.370;2023-12-20T09:48:59;8.60;94.10
22379;DHT22;11357;49.990;7.370;2023-12-20T09:51:27;8.60;94.10
22379;DHT22;11357;49.990;7.370;2023-12-20T09:53:54;8.50;94.10
22379;DHT22;11357;49.990;7.370;2023-12-20T09:56:22;8.60;94.10
22379;DHT22;11357;49.990;7.370;2023-12-20T09:58:48;8.60;94.10
22379;DHT22;11357;49.990;7.370;2023-12-20T10:01:14;8.60;94.10
22379;DHT22;11357;49.990;7.370;2023-12-20T10:34:39;8.80;93.80
22379;DHT22;11357;49.990;7.370;2023-12-20T10:37:05;8.80;93.70
22379;DHT22;11357;49.990;7.370;2023-12-20T10:39:30;8.70;93.70
22379;DHT22;11357;49.990;7.370;2023-12-20T10:41:57;8.70;93.70
22379;DHT22;11357;49.990;7.370;2023-12-20T11:22:53;8.50;93.20
22379;DHT22;11357;49.990;7.370;2023-12-20T11:25:19;8.50;93.30
22379;DHT22;11357;49.990;7.370;2023-12-20T11:28:08;8.50;93.30
22379;DHT22;11357;49.990;7.370;2023-12-20T11:33:17;8.60;93.40
22379;DHT22;11357;49.990;7.370;2023-12-20T11:35:46;8.70;93.40
22379;DHT22;11357;49.990;7.370;2023-12-20T11:38:13;8.70;93.30
22379;DHT22;11357;49.990;7.370;2023-12-20T11:40:41;8.70;93.30
22379;DHT22;11357;49.990;7.370;2023-12-20T11:43:07;8.80;93.30
22379;DHT22;11357;49.990;7.370;2023-12-20T11:45:33;8.70;93.20
22379;DHT22;11357;49.990;7.370;2023-12-20T11:48:03;8.70;93.20
22379;DHT22;11357;49.990;7.370;2023-12-20T11:50:29;8.70;93.20
22379;DHT22;11357;49.990;7.370;2023-12-20T11:52:56;8.70;93.30
22379;DHT22;11357;49.990;7.370;2023-12-20T11:55:22;8.80;93.30
22379;DHT22;11357;49.990;7.370;2023-12-20T11:57:50;8.80;93.30
22379;DHT22;11357;49.990;7.370;2023-12-20T12:00:17;8.80;93.20
22379;DHT22;11357;49.990;7.370;2023-12-20T12:02:43;8.80;93.20
22379;DHT22;11357;49.990;7.370;2023-12-20T12:05:09;8.80;93.20
22379;DHT22;11357;49.990;7.370;2023-12-20T12:07:35;8.80;93.20
22379;DHT22;11357;49.990;7.370;2023-12-20T12:10:01;8.80;93.20
22379;DHT22;11357;49.990;7.370;2023-12-20T12:12:29;8.80;93.20
22379;DHT22;11357;49.990;7.370;2023-12-20T12:14:55;8.80;93.30
22379;DHT22;11357;49.990;7.370;2023-12-20T12:17:23;8.70;93.30
22379;DHT22;11357;49.990;7.370;2023-12-20T12:19:48;8.70;93.30
22379;DHT22;11357;49.990;7.370;2023-12-20T12:22:18;8.70;93.40
22379;DHT22;11357;49.990;7.370;2023-12-20T12:24:46;8.70;93.30
22379;DHT22;11357;49.990;7.370;2023-12-20T12:27:13;8.70;93.30
22379;DHT22;11357;49.990;7.370;2023-12-20T12:29:39;8.70;93.40
22379;DHT22;11357;49.990;7.370;2023-12-20T12:32:09;8.70;93.40
22379;DHT22;11357;49.990;7.370;2023-12-20T12:34:35;8.70;93.50
22379;DHT22;11357;49.990;7.370;2023-12-20T12:37:02;8.70;93.40
22379;DHT22;11357;49.990;7.370;2023-12-20T12:39:29;8.70;93.40
22379;DHT22;11357;49.990;7.370;2023-12-20T12:41:55;8.60;93.50
22379;DHT22;11357;49.990;7.370;2023-12-20T12:44:21;8.60;93.50
22379;DHT22;11357;49.990;7.370;2023-12-20T12:46:49;8.60;93.50
22379;DHT22;11357;49.990;7.370;2023-12-20T12:49:19;8.60;93.50
22379;DHT22;11357;49.990;7.370;2023-12-20T12:51:45;8.60;93.50
22379;DHT22;11357;49.990;7.370;2023-12-20T12:56:39;8.60;93.60
22379;DHT22;11357;49.990;7.370;2023-12-20T12:59:04;8.60;93.60
22379;DHT22;11357;49.990;7.370;2023-12-20T13:01:31;8.60;93.60
22379;DHT22;11357;49.990;7.370;2023-12-20T13:03:57;8.60;93.60
22379;DHT22;11357;49.990;7.370;2023-12-20T13:06:22;8.60;93.60
22379;DHT22;11357;49.990;7.370;2023-12-20T13:08:49;8.60;93.70
22379;DHT22;11357;49.990;7.370;2023-12-20T13:11:14;8.50;93.70
22379;DHT22;11357;49.990;7.370;2023-12-20T13:13:40;8.50;93.70
22379;DHT22;11357;49.990;7.370;2023-12-20T13:16:06;8.50;93.80
22379;DHT22;11357;49.990;7.370;2023-12-20T13:18:31;8.40;93.80
22379;DHT22;11357;49.990;7.370;2023-12-20T13:20:57;8.40;93.80
22379;DHT22;11357;49.990;7.370;2023-12-20T13:23:23;8.40;93.80
22379;DHT22;11357;49.990;7.370;2023-12-20T13:25:49;8.40;93.90
22379;DHT22;11357;49.990;7.370;2023-12-20T13:28:14;8.30;93.90
22379;DHT22;11357;49.990;7.370;2023-12-20T13:30:40;8.30;94.00
22379;DHT22;11357;49.990;7.370;2023-12-20T13:33:06;8.30;94.00
22379;DHT22;11357;49.990;7.370;2023-12-20T13:35:33;8.40;94.00
22379;DHT22;11357;49.990;7.370;2023-12-20T13:37:59;8.40;94.00
22379;DHT22;11357;49.990;7.370;2023-12-20T13:40:26;8.30;94.00
22379;DHT22;11357;49.990;7.370;2023-12-20T13:42:51;8.30;94.00
22379;DHT22;11357;49.990;7.370;2023-12-20T13:45:17;8.30;94.10
22379;DHT22;11357;49.990;7.370;2023-12-20T13:47:42;8.30;94.10
22379;DHT22;11357;49.990;7.370;2023-12-20T13:50:08;8.30;94.20
22379;DHT22;11357;49.990;7.370;2023-12-20T13:52:35;8.20;94.20
22379;DHT22;11357;49.990;7.370;2023-12-20T13:55:01;8.20;94.20
22379;DHT22;11357;49.990;7.370;2023-12-20T13:57:27;8.10;94.30
22379;DHT22;11357;49.990;7.370;2023-12-20T13:59:54;8.10;94.30
22379;DHT22;11357;49.990;7.370;2023-12-20T14:02:20;8.10;94.30
22379;DHT22;11357;49.990;7.370;2023-12-20T14:04:45;8.10;94.40
22379;DHT22;11357;49.990;7.370;2023-12-20T14:07:11;8.10;94.40
22379;DHT22;11357;49.990;7.370;2023-12-20T14:09:36;8.10;94.40
22379;DHT22;11357;49.990;7.370;2023-12-20T14:12:02;8.10;94.40
22379;DHT22;11357;49.990;7.370;2023-12-20T14:14:28;8.10;94.50
22379;DHT22;11357;49.990;7.370;2023-12-20T14:16:53;8.20;94.80
22379;DHT22;11357;49.990;7.370;2023-12-20T14:19:19;8.20;94.40
22379;DHT22;11357;49.990;7.370;2023-12-20T14:21:45;8.30;94.40
22379;DHT22;11357;49.990;7.370;2023-12-20T14:24:13;8.30;94.40
22379;DHT22;11357;49.990;7.370;2023-12-20T14:26:42;8.30;94.50
22379;DHT22;11357;49.990;7.370;2023-12-20T14:29:07;8.30;94.50
22379;DHT22;11357;49.990;7.370;2023-12-20T14:31:33;8.30;94.50
22379;DHT22;11357;49.990;7.370;2023-12-20T14:33:59;8.30;94.50
22379;DHT22;11357;49.990;7.370;2023-12-20T14:36:26;8.30;94.40
22379;DHT22;11357;49.990;7.370;2023-12-20T14:38:52;8.30;94.50
22379;DHT22;11357;49.990;7.370;2023-12-20T14:41:18;8.30;94.40
22379;DHT22;11357;49.990;7.370;2023-12-20T14:43:44;8.30;94.50
22379;DHT22;11357;49.990;7.370;2023-12-20T14:46:10;8.30;94.50
22379;DHT22;11357;49.990;7.370;2023-12-20T14:48:35;8.30;94.50
22379;DHT22;11357;49.990;7.370;2023-12-20T14:51:01;8.30;94.50
22379;DHT22;11357;49.990;7.370;2023-12-20T14:53:27;8.30;94.50
22379;DHT22;11357;49.990;7.370;2023-12-20T14:55:52;8.20;94.50
22379;DHT22;11357;49.990;7.370;2023-12-20T14:58:18;8.20;94.50
22379;DHT22;11357;49.990;7.370;2023-12-20T15:00:44;8.20;94.50
22379;DHT22;11357;49.990;7.370;2023-12-20T15:03:10;8.20;94.60
22379;DHT22;11357;49.990;7.370;2023-12-20T15:05:36;8.20;94.50
22379;DHT22;11357;49.990;7.370;2023-12-20T15:08:02;8.20;94.60
22379;DHT22;11357;49.990;7.370;2023-12-20T15:10:28;8.30;94.60
22379;DHT22;11357;49.990;7.370;2023-12-20T15:12:53;8.20;94.50
22379;DHT22;11357;49.990;7.370;2023-12-20T15:15:21;8.20;94.60
22379;DHT22;11357;49.990;7.370;2023-12-20T15:17:47;8.30;94.60
22379;DHT22;11357;49.990;7.370;2023-12-20T15:20:12;8.30;94.60
22379;DHT22;11357;49.990;7.370;2023-12-20T15:22:39;8.20;94.60
22379;DHT22;11357;49.990;7.370;2023-12-20T15:31:56;8.30;94.60
22379;DHT22;11357;49.990;7.370;2023-12-20T15:34:21;8.30;94.50
22379;DHT22;11357;49.990;7.370;2023-12-20T15:36:47;8.30;94.50
22379;DHT22;11357;49.990;7.370;2023-12-20T15:39:13;8.30;94.60
22379;DHT22;11357;49.990;7.370;2023-12-20T15:41:39;8.30;94.60
22379;DHT22;11357;49.990;7.370;2023-12-20T15:44:05;8.30;94.60
22379;DHT22;11357;49.990;7.370;2023-12-20T15:46:31;8.30;94.60
22379;DHT22;11357;49.990;7.370;2023-12-20T15:48:57;8.30;94.60
22379;DHT22;11357;49.990;7.370;2023-12-20T15:51:23;8.30;94.60
22379;DHT22;11357;49.990;7.370;2023-12-20T15:53:49;8.30;94.60
22379;DHT22;11357;49.990;7.370;2023-12-20T15:56:18;8.30;94.60
22379;DHT22;11357;49.990;7.370;2023-12-20T15:58:45;8.30;94.60
22379;DHT22;11357;49.990;7.370;2023-12-20T16:01:10;8.30;94.60
22379;DHT22;11357;49.990;7.370;2023-12-20T16:03:36;8.30;94.60
22379;DHT22;11357;49.990;7.370;2023-12-20T16:06:02;8.30;94.70
22379;DHT22;11357;49.990;7.370;2023-12-20T16:08:28;8.30;94.70
22379;DHT22;11357;49.990;7.370;2023-12-20T16:10:53;8.30;94.80
22379;DHT22;11357;49.990;7.370;2023-12-20T16:13:19;8.30;94.80
22379;DHT22;11357;49.990;7.370;2023-12-20T16:15:46;8.30;94.80
22379;DHT22;11357;49.990;7.370;2023-12-20T16:18:11;8.30;94.80
22379;DHT22;11357;49.990;7.370;2023-12-20T16:20:37;8.30;94.80
22379;DHT22;11357;49.990;7.370;2023-12-20T16:23:04;8.30;94.70
22379;DHT22;11357;49.990;7.370;2023-12-20T16:25:29;8.30;94.80
22379;DHT22;11357;49.990;7.370;2023-12-20T16:27:55;8.30;94.80
22379;DHT22;11357;49.990;7.370;2023-12-20T16:30:21;8.40;94.80
22379;DHT22;11357;49.990;7.370;2023-12-20T16:32:46;8.40;94.80
22379;DHT22;11357;49.990;7.370;2023-12-20T16:35:13;8.40;94.90
22379;DHT22;11357;49.990;7.370;2023-12-20T16:37:39;8.40;94.90
22379;DHT22;11357;49.990;7.370;2023-12-20T16:40:05;8.50;94.90
22379;DHT22;11357;49.990;7.370;2023-12-20T16:42:31;8.50;94.90
22379;DHT22;11357;49.990;7.370;2023-12-20T16:44:57;8.50;94.90
22379;DHT22;11357;49.990;7.370;2023-12-20T16:47:22;8.50;94.90
22379;DHT22;11357;49.990;7.370;2023-12-20T16:49:48;8.60;95.00
22379;DHT22;11357;49.990;7.370;2023-12-20T16:52:14;8.60;95.00
22379;DHT22;11357;49.990;7.370;2023-12-20T16:54:39;8.60;95.00
22379;DHT22;11357;49.990;7.370;2023-12-20T16:57:05;8.60;94.90
22379;DHT22;11357;49.990;7.370;2023-12-20T16:59:31;8.60;95.00
22379;DHT22;11357;49.990;7.370;2023-12-20T17:01:56;8.60;95.00
22379;DHT22;11357;49.990;7.370;2023-12-20T17:04:22;8.60;95.00
22379;DHT22;11357;49.990;7.370;2023-12-20T17:06:49;8.60;95.00
22379;DHT22;11357;49.990;7.370;2023-12-20T17:09:15;8.60;95.00
22379;DHT22;11357;49.990;7.370;2023-12-20T17:11:43;8.70;95.00
22379;DHT22;11357;49.990;7.370;2023-12-20T17:14:09;8.60;95.00
22379;DHT22;11357;49.990;7.370;2023-12-20T17:16:36;8.70;95.10
22379;DHT22;11357;49.990;7.370;2023-12-20T17:19:02;8.70;95.10
22379;DHT22;11357;49.990;7.370;2023-12-20T17:21:30;8.70;95.10
22379;DHT22;11357;49.990;7.370;2023-12-20T17:23:56;8.70;95.10
22379;DHT22;11357;49.990;7.370;2023-12-20T17:26:21;8.60;95.20
22379;DHT22;11357;49.990;7.370;2023-12-20T17:28:47;8.60;95.20
22379;DHT22;11357;49.990;7.370;2023-12-20T17:31:13;8.60;95.30
22379;DHT22;11357;49.990;7.370;2023-12-20T17:33:39;8.70;95.30
22379;DHT22;11357;49.990;7.370;2023-12-20T17:36:05;8.70;95.30
22379;DHT22;11357;49.990;7.370;2023-12-20T17:38:31;8.60;95.30
22379;DHT22;11357;49.990;7.370;2023-12-20T17:41:00;8.60;95.40
22379;DHT22;11357;49.990;7.370;2023-12-20T17:43:25;8.60;95.40
22379;DHT22;11357;49.990;7.370;2023-12-20T17:45:51;8.60;95.40
22379;DHT22;11357;49.990;7.370;2023-12-20T17:48:16;8.70;95.50
22379;DHT22;11357;49.990;7.370;2023-12-20T17:50:43;8.60;95.50
22379;DHT22;11357;49.990;7.370;2023-12-20T17:53:09;8.60;95.50
22379;DHT22;11357;49.990;7.370;2023-12-20T17:55:34;8.70;95.60
22379;DHT22;11357;49.990;7.370;2023-12-20T17:58:00;8.70;95.60
22379;DHT22;11357;49.990;7.370;2023-12-20T18:00:33;8.70;95.50
22379;DHT22;11357;49.990;7.370;2023-12-20T18:02:58;8.70;95.50
22379;DHT22;11357;49.990;7.370;2023-12-20T18:05:24;8.80;95.50
22379;DHT22;11357;49.990;7.370;2023-12-20T18:07:50;8.80;95.50
22379;DHT22;11357;49.990;7.370;2023-12-20T18:10:18;8.80;95.50
22379;DHT22;11357;49.990;7.370;2023-12-20T18:12:45;8.80;95.50
22379;DHT22;11357;49.990;7.370;2023-12-20T18:15:14;8.80;95.60
22379;DHT22;11357;49.990;7.370;2023-12-20T18:17:40;8.80;95.60
22379;DHT22;11357;49.990;7.370;2023-12-20T18:20:07;8.80;95.60
22379;DHT22;11357;49.990;7.370;2023-12-20T18:22:33;8.80;95.60
22379;DHT22;11357;49.990;7.370;2023-12-20T18:24:58;8.80;95.70
22379;DHT22;11357;49.990;7.370;2023-12-20T18:27:24;8.80;95.80
22379;DHT22;11357;49.990;7.370;2023-12-20T18:29:51;8.80;95.80
22379;DHT22;11357;49.990;7.370;2023-12-20T18:32:16;8.80;95.80
22379;DHT22;11357;49.990;7.370;2023-12-20T18:34:42;8.80;96.00
22379;DHT22;11357;49.990;7.370;2023-12-20T18:37:08;8.80;95.80
22379;DHT22;11357;49.990;7.370;2023-12-20T18:39:36;8.80;95.80
22379;DHT22;11357;49.990;7.370;2023-12-20T18:42:04;8.80;95.80
22379;DHT22;11357;49.990;7.370;2023-12-20T18:44:30;8.80;95.90
22379;DHT22;11357;49.990;7.370;2023-12-20T18:46:57;8.80;95.90
22379;DHT22;11357;49.990;7.370;2023-12-20T18:49:22;8.80;95.90
22379;DHT22;11357;49.990;7.370;2023-12-20T18:51:48;8.80;95.90
22379;DHT22;11357;49.990;7.370;2023-12-20T18:54:14;8.80;95.90
22379;DHT22;11357;49.990;7.370;2023-12-20T18:56:39;8.80;95.90
22379;DHT22;11357;49.990;7.370;2023-12-20T18:59:05;8.80;95.90
22379;DHT22;11357;49.990;7.370;2023-12-20T19:01:31;8.80;95.90
22379;DHT22;11357;49.990;7.370;2023-12-20T19:03:57;8.80;95.90
22379;DHT22;11357;49.990;7.370;2023-12-20T19:06:23;8.90;95.90
22379;DHT22;11357;49.990;7.370;2023-12-20T19:08:48;8.90;95.90
22379;DHT22;11357;49.990;7.370;2023-12-20T19:11:16;8.90;95.90
22379;DHT22;11357;49.990;7.370;2023-12-20T19:13:42;8.90;95.90
22379;DHT22;11357;49.990;7.370;2023-12-20T19:16:07;8.90;96.00
22379;DHT22;11357;49.990;7.370;2023-12-20T19:18:34;8.90;96.00
22379;DHT22;11357;49.990;7.370;2023-12-20T19:21:00;8.90;96.00
22379;DHT22;11357;49.990;7.370;2023-12-20T19:23:25;8.90;96.00
22379;DHT22;11357;49.990;7.370;2023-12-20T19:25:52;8.90;96.00
22379;DHT22;11357;49.990;7.370;2023-12-20T19:28:18;8.90;96.00
22379;DHT22;11357;49.990;7.370;2023-12-20T19:30:45;9.00;96.00
22379;DHT22;11357;49.990;7.370;2023-12-20T19:33:11;9.00;96.00
22379;DHT22;11357;49.990;7.370;2023-12-20T19:35:37;8.90;96.00
22379;DHT22;11357;49.990;7.370;2023-12-20T19:38:03;9.00;96.20
22379;DHT22;11357;49.990;7.370;2023-12-20T19:40:29;9.00;96.00
22379;DHT22;11357;49.990;7.370;2023-12-20T19:42:55;9.00;96.00
22379;DHT22;11357;49.990;7.370;2023-12-20T19:45:21;9.00;96.10
22379;DHT22;11357;49.990;7.370;2023-12-20T19:47:50;9.00;96.10
22379;DHT22;11357;49.990;7.370;2023-12-20T19:50:17;8.90;96.10
22379;DHT22;11357;49.990;7.370;2023-12-20T19:52:42;9.00;96.20
22379;DHT22;11357;49.990;7.370;2023-12-20T19:55:09;9.00;96.20
22379;DHT22;11357;49.990;7.370;2023-12-20T19:57:34;9.00;96.20
22379;DHT22;11357;49.990;7.370;2023-12-20T20:00:00;9.00;96.20
22379;DHT22;11357;49.990;7.370;2023-12-20T20:02:26;9.00;96.20
22379;DHT22;11357;49.990;7.370;2023-12-20T20:04:52;9.00;96.20
22379;DHT22;11357;49.990;7.370;2023-12-20T20:07:17;9.00;96.20
22379;DHT22;11357;49.990;7.370;2023-12-20T20:09:48;9.10;96.20
22379;DHT22;11357;49.990;7.370;2023-12-20T20:12:14;9.10;96.20
22379;DHT22;11357;49.990;7.370;2023-12-20T20:14:40;9.10;96.20
22379;DHT22;11357;49.990;7.370;2023-12-20T20:17:06;9.10;96.20
22379;DHT22;11357;49.990;7.370;2023-12-20T20:19:32;9.10;96.20
22379;DHT22;11357;49.990;7.370;2023-12-20T20:21:58;9.10;96.20
22379;DHT22;11357;49.990;7.370;2023-12-20T20:24:24;9.10;96.20
22379;DHT22;11357;49.990;7.370;2023-12-20T20:26:50;9.10;96.30
22379;DHT22;11357;49.990;7.370;2023-12-20T20:29:17;9.10;96.30
22379;DHT22;11357;49.990;7.370;2023-12-20T20:31:43;9.10;96.40